Air Navigation Services of Czech Republic  
Last data update:  03.12.2021 19:23:30 UTC česká verze
   METEO Page displayed:  03.12.2021 19:24:46 UTC  
vysvětlivky
METAR EDDB 031920Z 21017KT 9999 FEW042 02/M02 Q1005 NOSIG=
METAR EDDC 031920Z 21013KT CAVOK 00/M05 Q1008 NOSIG=
METAR EDDE 031920Z 21013KT CAVOK 01/M03 Q1005 TEMPO 22015G25KT=
METAR EDDF 031920Z 19009KT 160V220 9999 -SNRA BKN025 BKN034 03/M01 Q1008 NOSIG=
METAR EDDM 031920Z 18006KT CAVOK M01/M04 Q1012 NOSIG=
METAR EDDN 031920Z 16008KT CAVOK M00/M03 Q1011 NOSIG=
METAR EDDP 031920Z 21014KT 9999 FEW016 01/M03 Q1006 TEMPO 21015G25KT=
METAR EDQM 031850Z 21014KT 170V230 9999 BKN010 M02/M03 Q1008=
METAR EPBY 031900Z 24012KT CAVOK 00/M03 Q1006=
METAR EPGD 031900Z 24011KT 9999 BKN010 01/M01 Q1002=
METAR EPKK 031900Z 22004KT 160V250 CAVOK M02/M07 Q1013=
METAR EPKT 031900Z 22010KT CAVOK M02/M07 Q1011=
METAR EPLL 031900Z 22010KT 190V250 CAVOK M01/M06 Q1009=
METAR EPPO 031900Z 24011KT CAVOK 01/M04 Q1008=
METAR EPRZ 031900Z 21003KT CAVOK M03/M06 Q1013=
METAR EPWA 031900Z 24010KT 9999 BKN033 02/M04 Q1009 NOSIG=
METAR EPWR 031900Z 21008KT CAVOK 01/M06 Q1011=
METAR LHBP 031900Z VRB02KT CAVOK M03/M06 Q1015 NOSIG=
METAR LHSM 031845Z AUTO 29001KT 7000 NCD M01/M02 Q1016=
METAR LKBC NIL
METAR LKCV 031900Z 15007KT CAVOK M01/M04 Q1012 NOSIG RMK BLU BLU=
METAR LKKB 031900Z 20010KT CAVOK M01/M05 Q1011 NOSIG RMK BLU BLU=
METAR LKKU NIL
METAR LKKV 031900Z 21007KT 170V250 9999 OVC021 M02/M05 Q1009 RMK REG QNH 1006=
METAR LKLN 031930Z AUTO 22009KT CAVOK M01/M04 Q1012=
METAR LKMT 031900Z 19009KT CAVOK M00/M06 Q1013 NOSIG RMK REG QNH 1006=
METAR LKNA 031900Z 21006KT CAVOK M03/M05 Q1013 NOSIG RMK BLU BLU=
METAR LKPD 031900Z 17005KT CAVOK M01/M04 Q1012 NOSIG RMK BLU BLU=
METAR LKPJ 031900Z AUTO VRB02KT 9999 FEW190/// M02/M06 Q1014=
METAR LKPR 031900Z 18007KT CAVOK M01/M04 Q1011 NOSIG RMK REG QNH 1006=
METAR LKTB 031900Z 06002KT CAVOK M01/M05 Q1014 NOSIG RMK REG QNH 1006=
METAR LKVO NIL
METAR LOWI 031850Z VRB01KT CAVOK M03/M06 Q1015 NOSIG=
METAR LOWL 031850Z AUTO 23003KT 9999 NCD M01/M04 Q1015 NOSIG=
METAR LOWS 031850Z 16008KT CAVOK M03/M04 Q1014 NOSIG=
METAR LOWW 031850Z 26003KT CAVOK 00/M04 Q1016 NOSIG=
METAR LZIB 031900Z 22004KT 200V280 CAVOK 00/M03 Q1016 NOSIG=
METAR LZKZ 031900Z 32004KT 290V350 CAVOK M02/M05 Q1014=
METAR LZMC NIL
METAR LZPP 031900Z VRB01KT CAVOK M04/M05 Q1015=
METAR LZSL NIL
METAR LZTT 031900Z 26013KT CAVOK M06/M10 Q1012=
METAR LZZI 031900Z VRB01KT CAVOK M04/M06 Q1015=